createdAt,value
2023-03-22T00:01:25.728Z,100487.91
2023-03-22T00:03:53.553Z,100488.50
2023-03-22T00:06:21.050Z,100488.59
2023-03-22T00:08:51.238Z,100485.28
2023-03-22T00:11:21.414Z,100490.63
2023-03-22T00:13:48.827Z,100435.53
2023-03-22T00:16:17.582Z,100488.50
2023-03-22T00:18:45.745Z,100487.03
2023-03-22T00:21:17.734Z,100491.34
2023-03-22T00:23:46.027Z,100492.38
2023-03-22T00:26:14.902Z,100497.00
2023-03-22T00:28:43.933Z,100487.84
2023-03-22T00:31:11.818Z,100490.56
2023-03-22T00:33:39.677Z,100494.16
2023-03-22T00:36:10.121Z,100493.88
2023-03-22T00:38:42.761Z,100496.22
2023-03-22T00:41:16.429Z,100490.06
2023-03-22T00:43:46.881Z,100442.78
2023-03-22T00:46:15.785Z,100486.94
2023-03-22T00:48:43.990Z,100500.88
2023-03-22T00:51:13.298Z,100493.56
2023-03-22T00:53:43.283Z,100500.59
2023-03-22T00:56:15.807Z,100490.25
2023-03-22T00:58:44.273Z,100439.97
2023-03-22T01:01:15.210Z,100490.19
2023-03-22T01:03:43.947Z,100438.88
2023-03-22T01:06:14.585Z,100478.50
2023-03-22T01:08:42.458Z,100484.72
2023-03-22T01:11:11.573Z,100480.91
2023-03-22T01:13:41.852Z,100482.94
2023-03-22T01:16:10.627Z,100477.53
2023-03-22T01:18:38.382Z,100426.31
2023-03-22T01:21:06.781Z,100470.28
2023-03-22T01:23:35.268Z,100458.22
2023-03-22T01:26:04.079Z,100467.97
2023-03-22T01:28:32.005Z,100475.09
2023-03-22T01:31:02.961Z,100476.19
2023-03-22T01:33:30.820Z,100474.47
2023-03-22T01:35:58.810Z,100469.03
2023-03-22T01:38:26.520Z,100422.41
2023-03-22T01:40:54.173Z,100465.81
2023-03-22T01:43:21.975Z,100473.41
2023-03-22T01:45:51.632Z,100469.97
2023-03-22T01:48:37.272Z,100477.09
2023-03-22T01:51:19.628Z,100473.38
2023-03-22T01:53:59.655Z,100445.12
2023-03-22T01:56:31.422Z,100467.72
2023-03-22T01:58:59.447Z,100470.47
2023-03-22T02:01:28.406Z,100473.91
2023-03-22T02:04:07.209Z,100471.63
2023-03-22T02:06:38.202Z,100467.13
2023-03-22T02:09:09.203Z,100461.69
2023-03-22T02:11:43.614Z,100373.84
2023-03-22T02:14:18.149Z,100463.81
2023-03-22T02:16:58.705Z,100462.53
2023-03-22T02:19:52.009Z,100405.81
2023-03-22T02:22:53.045Z,100468.31
2023-03-22T02:25:51.541Z,100466.12
2023-03-22T02:28:34.299Z,100472.47
2023-03-22T02:31:23.569Z,100422.72
2023-03-22T02:33:51.834Z,100474.13
2023-03-22T02:36:48.467Z,100468.00
2023-03-22T02:39:42.294Z,100475.09
2023-03-22T02:42:23.582Z,100478.94
2023-03-22T02:45:18.210Z,100478.81
2023-03-22T02:47:54.443Z,100481.56
2023-03-22T02:50:27.011Z,100426.41
2023-03-22T02:53:12.938Z,100461.13
2023-03-22T02:55:54.534Z,100492.50
2023-03-22T02:58:45.703Z,100483.00
2023-03-22T03:01:25.030Z,100492.62
2023-03-22T03:03:57.126Z,100494.06
2023-03-22T03:06:28.969Z,100505.44
2023-03-22T03:08:58.406Z,100501.19
2023-03-22T03:11:26.887Z,100510.78
2023-03-22T03:13:55.577Z,100503.25
2023-03-22T03:16:27.502Z,100501.03
2023-03-22T03:19:03.732Z,100508.47
2023-03-22T03:21:55.835Z,100513.16
2023-03-22T03:24:33.552Z,100507.75
2023-03-22T03:27:11.525Z,100463.19
2023-03-22T03:29:51.000Z,100516.09
2023-03-22T03:32:59.314Z,100515.13
2023-03-22T03:35:37.704Z,100515.44
2023-03-22T03:38:12.909Z,100515.25
2023-03-22T03:40:44.752Z,100514.94
2023-03-22T03:43:14.208Z,100525.34
2023-03-22T03:45:42.229Z,100519.00
2023-03-22T03:48:18.344Z,100511.06
2023-03-22T03:50:50.266Z,100527.44
2023-03-22T03:53:18.438Z,100497.81
2023-03-22T03:55:46.600Z,100526.53
2023-03-22T03:58:16.146Z,100531.84
2023-03-22T04:00:46.457Z,100531.63
2023-03-22T04:03:17.631Z,100538.00
2023-03-22T04:05:46.081Z,100540.19
2023-03-22T04:08:14.134Z,100540.06
2023-03-22T04:10:42.374Z,100545.28
2023-03-22T04:13:10.344Z,100539.25
2023-03-22T04:15:38.235Z,100485.94
2023-03-22T04:18:07.180Z,100545.19
2023-03-22T04:20:34.682Z,100546.44
2023-03-22T04:23:02.532Z,100540.22
2023-03-22T04:25:30.163Z,100547.06
2023-03-22T04:28:00.544Z,100551.88
2023-03-22T04:30:30.844Z,100546.66
2023-03-22T04:33:01.350Z,100551.25
2023-03-22T04:35:30.180Z,100548.66
2023-03-22T04:37:59.292Z,100498.88
2023-03-22T04:40:28.718Z,100553.75
2023-03-22T04:42:57.599Z,100558.13
2023-03-22T04:45:29.272Z,100559.50
2023-03-22T04:47:58.522Z,100557.50
2023-03-22T04:50:28.221Z,100571.44
2023-03-22T04:52:58.455Z,100558.28
2023-03-22T04:55:27.673Z,100551.50
2023-03-22T04:57:55.271Z,100561.53
2023-03-22T05:00:23.544Z,100559.97
2023-03-22T05:02:51.415Z,100571.31
2023-03-22T05:05:19.241Z,100523.09
2023-03-22T05:07:47.380Z,100572.09
2023-03-22T05:10:15.010Z,100568.44
2023-03-22T05:12:43.463Z,100576.94
2023-03-22T05:15:11.723Z,100569.97
2023-03-22T05:17:39.349Z,100560.19
2023-03-22T05:20:10.024Z,100577.31
2023-03-22T05:22:40.760Z,100586.69
2023-03-22T05:25:10.556Z,100584.53
2023-03-22T05:27:39.087Z,100574.62
2023-03-22T05:30:08.383Z,100592.16
2023-03-22T05:32:37.708Z,100585.03
2023-03-22T05:35:06.442Z,100602.81
2023-03-22T05:37:34.420Z,100598.22
2023-03-22T05:40:02.575Z,100601.75
2023-03-22T05:42:32.336Z,100603.66
2023-03-22T05:45:00.851Z,100602.47
2023-03-22T05:47:28.503Z,100605.75
2023-03-22T05:49:56.735Z,100614.28
2023-03-22T05:52:24.758Z,100608.66
2023-03-22T05:54:52.696Z,100558.56
2023-03-22T05:57:21.217Z,100614.50
2023-03-22T05:59:48.724Z,100620.03
2023-03-22T06:02:17.607Z,100621.28
2023-03-22T06:04:45.460Z,100618.56
2023-03-22T06:07:13.934Z,100630.78
2023-03-22T06:09:41.907Z,100617.91
2023-03-22T06:12:10.672Z,100635.28
2023-03-22T06:14:38.691Z,100637.31
2023-03-22T06:17:06.412Z,100639.12
2023-03-22T06:19:34.382Z,100635.91
2023-03-22T06:22:02.343Z,100628.91
2023-03-22T06:24:31.977Z,100641.59
2023-03-22T06:26:59.943Z,100640.56
2023-03-22T06:29:28.396Z,100641.66
2023-03-22T06:31:56.840Z,100649.28
2023-03-22T06:34:24.919Z,100646.13
2023-03-22T06:36:53.527Z,100654.00
2023-03-22T06:39:22.791Z,100647.78
2023-03-22T06:41:50.631Z,100655.31
2023-03-22T06:44:18.374Z,100649.59
2023-03-22T06:46:51.631Z,100606.00
2023-03-22T06:49:21.894Z,100659.69
2023-03-22T06:51:51.572Z,100656.50
2023-03-22T06:54:20.721Z,100659.22
2023-03-22T06:56:48.397Z,100662.72
2023-03-22T06:59:16.278Z,100661.22
2023-03-22T07:01:44.701Z,100652.19
2023-03-22T07:04:12.406Z,100654.41
2023-03-22T07:06:41.373Z,100615.22
2023-03-22T07:09:10.363Z,100658.84
2023-03-22T07:11:39.230Z,100665.25
2023-03-22T07:14:07.227Z,100662.47
2023-03-22T07:16:36.171Z,100664.69
2023-03-22T07:19:04.111Z,100654.22
2023-03-22T07:21:31.592Z,100662.84
2023-03-22T07:24:00.277Z,100650.06
2023-03-22T07:26:28.057Z,100663.31
2023-03-22T07:28:57.022Z,100662.28
2023-03-22T07:31:26.791Z,100634.34
2023-03-22T07:33:56.177Z,100667.78
2023-03-22T07:36:25.745Z,100620.28
2023-03-22T07:38:53.864Z,100669.25
2023-03-22T07:41:24.072Z,100675.50
2023-03-22T07:43:58.259Z,100686.06
2023-03-22T07:46:30.436Z,100642.25
2023-03-22T07:48:58.837Z,100686.66
2023-03-22T07:51:27.473Z,100682.62
2023-03-22T07:53:55.813Z,100681.94
2023-03-22T07:56:23.481Z,100680.97
2023-03-22T07:58:51.270Z,100682.88
2023-03-22T08:01:20.373Z,100670.38
2023-03-22T08:03:48.728Z,100691.59
2023-03-22T08:06:19.480Z,100693.56
2023-03-22T08:08:47.740Z,100692.97
2023-03-22T08:11:16.853Z,100694.50
2023-03-22T08:13:44.396Z,100688.34
2023-03-22T08:16:11.859Z,100690.09
2023-03-22T08:18:39.782Z,100689.06
2023-03-22T08:21:08.044Z,100696.97
2023-03-22T08:23:41.742Z,100687.97
2023-03-22T08:26:12.560Z,100694.91
2023-03-22T08:28:40.443Z,100678.06
2023-03-22T08:31:15.154Z,100632.88
2023-03-22T08:33:44.643Z,100683.50
2023-03-22T08:36:16.754Z,100669.94
2023-03-22T08:38:45.455Z,100666.97
2023-03-22T08:41:13.723Z,100667.78
2023-03-22T08:43:42.415Z,100672.94
2023-03-22T08:46:10.622Z,100670.63
2023-03-22T08:48:38.617Z,100668.59
2023-03-22T08:51:06.921Z,100672.13
2023-03-22T08:53:35.586Z,100669.25
2023-03-22T08:56:04.977Z,100673.91
2023-03-22T08:58:33.768Z,100673.59
2023-03-22T09:01:06.477Z,100638.97
2023-03-22T09:03:34.324Z,100674.84
2023-03-22T09:06:02.318Z,100666.50
2023-03-22T09:08:30.676Z,100665.06
2023-03-22T09:10:59.183Z,100665.09
2023-03-22T09:13:26.867Z,100620.69
2023-03-22T09:15:54.918Z,100657.50
2023-03-22T09:18:24.456Z,100659.81
2023-03-22T09:20:52.853Z,100647.53
2023-03-22T09:23:21.145Z,100654.37
2023-03-22T09:25:49.318Z,100617.72
2023-03-22T09:28:17.262Z,100658.81
2023-03-22T09:30:46.052Z,100660.63
2023-03-22T09:33:13.855Z,100653.75
2023-03-22T09:35:43.176Z,100652.50
2023-03-22T09:38:12.635Z,100656.03
2023-03-22T09:40:52.276Z,100655.22
2023-03-22T09:43:21.108Z,100639.94
2023-03-22T09:45:51.212Z,100648.81
2023-03-22T09:48:28.918Z,100603.94
2023-03-22T09:50:57.191Z,100610.97
2023-03-22T09:53:27.961Z,100651.19
2023-03-22T09:56:10.548Z,100636.03
2023-03-22T09:58:48.622Z,100643.38
2023-03-22T10:01:40.808Z,100642.31
2023-03-22T10:04:36.721Z,100643.75
2023-03-22T10:07:24.432Z,100636.59
2023-03-22T10:10:20.157Z,100633.56
2023-03-22T10:13:07.725Z,100588.44
2023-03-22T10:15:40.024Z,100587.06
2023-03-22T10:18:13.220Z,100630.97
2023-03-22T10:20:49.412Z,100616.31
2023-03-22T10:23:32.767Z,100628.09
2023-03-22T10:26:02.862Z,100627.53
2023-03-22T10:28:38.612Z,100631.41
2023-03-22T10:31:13.053Z,100633.53
2023-03-22T10:33:55.563Z,100627.72
2023-03-22T10:36:28.629Z,100622.31
2023-03-22T10:39:10.266Z,100633.06
2023-03-22T10:41:39.408Z,100625.03
2023-03-22T10:44:07.451Z,100629.50
2023-03-22T10:46:40.380Z,100629.06
2023-03-22T10:49:16.264Z,100581.75
2023-03-22T10:51:49.379Z,100620.22
2023-03-22T10:54:26.619Z,100622.53
2023-03-22T10:56:54.069Z,100601.88
2023-03-22T10:59:48.867Z,100617.66
2023-03-22T11:02:24.214Z,100610.84
2023-03-22T11:04:54.636Z,100608.94
2023-03-22T11:07:37.454Z,100609.56
2023-03-22T11:10:08.274Z,100605.31
2023-03-22T11:12:55.193Z,100605.91
2023-03-22T11:15:31.462Z,100605.50
2023-03-22T11:18:02.912Z,100602.03
2023-03-22T11:20:33.071Z,100599.69
2023-03-22T11:23:03.300Z,100585.38
2023-03-22T11:25:45.028Z,100597.50
2023-03-22T11:28:19.292Z,100585.50
2023-03-22T11:31:04.643Z,100542.78
2023-03-22T11:33:33.510Z,100578.50
2023-03-22T11:36:04.257Z,100565.00
2023-03-22T11:38:44.855Z,100582.34
2023-03-22T11:41:23.250Z,100574.91
2023-03-22T11:43:56.922Z,100573.25
2023-03-22T11:46:25.399Z,100567.09
2023-03-22T11:49:00.995Z,100570.78
2023-03-22T11:51:33.459Z,100552.94
2023-03-22T11:54:16.778Z,100563.00
2023-03-22T11:56:48.135Z,100551.16
2023-03-22T11:59:23.179Z,100553.66
2023-03-22T12:02:12.425Z,100535.66
2023-03-22T12:04:41.812Z,100557.97
2023-03-22T12:07:19.597Z,100553.16
2023-03-22T12:10:04.416Z,100530.16
2023-03-22T12:12:44.429Z,100515.91
2023-03-22T12:15:21.112Z,100529.72
2023-03-22T12:18:07.833Z,100515.53
2023-03-22T12:20:41.194Z,100551.25
2023-03-22T12:23:18.585Z,100550.06
2023-03-22T12:25:55.759Z,100547.31
2023-03-22T12:28:33.103Z,100542.37
2023-03-22T12:31:03.795Z,100550.38
2023-03-22T12:33:38.404Z,100545.00
2023-03-22T12:36:08.014Z,100543.03
2023-03-22T12:38:56.035Z,100537.06
2023-03-22T12:41:34.836Z,100537.50
2023-03-22T12:44:11.843Z,100541.75
2023-03-22T12:46:59.413Z,100535.72
2023-03-22T12:49:41.499Z,100539.81
2023-03-22T12:52:25.230Z,100539.97
2023-03-22T12:54:56.553Z,100529.13
2023-03-22T12:57:25.007Z,100537.81
2023-03-22T12:59:56.108Z,100522.03
2023-03-22T13:02:30.279Z,100521.06
2023-03-22T13:05:00.898Z,100526.97
2023-03-22T13:07:31.762Z,100513.44
2023-03-22T13:10:00.758Z,100518.91
2023-03-22T13:12:34.222Z,100522.81
2023-03-22T13:15:13.794Z,100534.59
2023-03-22T13:17:46.960Z,100490.88
2023-03-22T13:20:20.121Z,100521.91
2023-03-22T13:22:47.489Z,100523.84
2023-03-22T13:25:23.645Z,100524.87
2023-03-22T13:28:03.502Z,100519.97
2023-03-22T13:30:36.468Z,100515.78
2023-03-22T13:33:09.905Z,100505.75
2023-03-22T13:35:46.461Z,100504.91
2023-03-22T13:38:23.060Z,100509.34
2023-03-22T13:40:59.866Z,100504.87
2023-03-22T13:43:39.591Z,100501.84
2023-03-22T13:46:21.620Z,100488.06
2023-03-22T13:48:55.394Z,100495.41
2023-03-22T13:51:23.448Z,100450.47
2023-03-22T13:54:16.546Z,100489.22
2023-03-22T13:56:47.858Z,100447.06
2023-03-22T13:59:20.148Z,100452.06
2023-03-22T14:02:04.981Z,100447.09
2023-03-22T14:04:47.577Z,100444.19
2023-03-22T14:07:40.308Z,100484.34
2023-03-22T14:10:20.053Z,100480.03
2023-03-22T14:12:47.840Z,100478.88
2023-03-22T14:15:25.654Z,100473.56
2023-03-22T14:18:02.366Z,100482.00
2023-03-22T14:20:34.473Z,100447.75
